Time,TemperatureF,DewpointF,PressureIn,WindDirection,WindDirectionDegrees,WindSpeedMPH,WindSpeedGustMPH,Humidity,HourlyPrecipIn,Conditions,Clouds,dailyrainin,SoftwareType,DateUTC
2013-08-29 00:00:00,82.9,61.8,30.01,SSW,206,0.0,0.0,49,0.00,,---,0.00,VWS V14.00,2013-08-29 05:00:00,
2013-08-29 00:10:00,82.9,61.8,30.01,SSW,206,0.0,0.0,49,0.00,,---,0.00,VWS V14.00,2013-08-29 05:10:00,
2013-08-29 00:20:00,82.8,62.2,30.01,SSW,207,0.0,0.0,50,0.00,,---,0.00,VWS V14.00,2013-08-29 05:20:00,
2013-08-29 00:30:00,82.4,61.9,30.01,SSW,207,0.0,0.0,50,0.00,,---,0.00,VWS V14.00,2013-08-29 05:30:00,
2013-08-29 00:40:00,82.2,61.8,30.01,SSW,207,0.0,0.0,50,0.00,,---,0.00,VWS V14.00,2013-08-29 05:40:00,
2013-08-29 00:50:00,81.9,62.0,30.01,SSW,205,0.0,0.0,51,0.00,,---,0.00,VWS V14.00,2013-08-29 05:50:00,
2013-08-29 01:00:00,81.7,61.8,30.01,SSW,206,0.0,0.0,51,0.00,,---,0.00,VWS V14.00,2013-08-29 06:00:00,
2013-08-29 01:10:00,81.3,62.0,30.01,SSW,208,0.0,0.0,52,0.00,,---,0.00,VWS V14.00,2013-08-29 06:10:00,
2013-08-29 01:20:00,81.1,61.9,30.01,SSW,207,0.0,0.0,52,0.00,,---,0.00,VWS V14.00,2013-08-29 06:20:00,
2013-08-29 01:30:00,81.0,61.7,30.01,SSW,206,0.0,0.0,52,0.00,,---,0.00,VWS V14.00,2013-08-29 06:30:00,
2013-08-29 01:40:00,80.8,62.1,30.01,SSW,206,0.0,0.0,53,0.00,,---,0.00,VWS V14.00,2013-08-29 06:40:00,
2013-08-29 01:50:00,80.6,61.9,30.01,SSW,207,0.0,0.0,53,0.00,,---,0.00,VWS V14.00,2013-08-29 06:50:00,
2013-08-29 02:00:00,80.2,61.6,30.01,SSW,205,0.0,0.0,53,0.00,,---,0.00,VWS V14.00,2013-08-29 07:00:00,
2013-08-29 02:10:00,79.9,61.8,30.01,SSW,205,0.0,0.0,54,0.00,,---,0.00,VWS V14.00,2013-08-29 07:10:00,
2013-08-29 02:20:00,79.5,62.0,30.01,SSW,206,0.0,0.0,55,0.00,,---,0.00,VWS V14.00,2013-08-29 07:20:00,
2013-08-29 02:30:00,79.2,62.1,30.01,SSW,206,0.0,0.0,56,0.00,,---,0.00,VWS V14.00,2013-08-29 07:30:00,
2013-08-29 02:40:00,79.0,62.0,30.01,SSW,207,0.0,0.0,56,0.00,,---,0.00,VWS V14.00,2013-08-29 07:40:00,
2013-08-29 02:50:00,79.0,62.0,30.01,SSW,206,0.0,0.0,56,0.00,,---,0.00,VWS V14.00,2013-08-29 07:50:00,
2013-08-29 03:00:00,78.8,62.3,30.01,SSW,206,0.0,0.0,57,0.00,,---,0.00,VWS V14.00,2013-08-29 08:00:00,
2013-08-29 03:10:00,78.8,62.3,30.01,SSW,207,0.0,0.0,57,0.00,,---,0.00,VWS V14.00,2013-08-29 08:10:00,
2013-08-29 03:20:00,78.4,62.0,30.01,SSW,206,0.0,0.0,57,0.00,,---,0.00,VWS V14.00,2013-08-29 08:20:00,
2013-08-29 03:30:00,78.1,62.6,30.01,SSW,206,0.0,0.0,59,0.00,,---,0.00,VWS V14.00,2013-08-29 08:30:00,
2013-08-29 03:40:00,77.7,62.7,30.01,SSW,206,0.0,0.0,60,0.00,,---,0.00,VWS V14.00,2013-08-29 08:40:00,
2013-08-29 03:50:00,77.4,62.9,30.01,SSW,208,0.0,0.0,61,0.00,,---,0.00,VWS V14.00,2013-08-29 08:50:00,
2013-08-29 04:00:00,77.2,62.7,30.01,SSW,208,0.0,0.0,61,0.00,,---,0.00,VWS V14.00,2013-08-29 09:00:00,
2013-08-29 04:10:00,76.8,62.8,30.01,SSW,206,0.0,0.0,62,0.00,,---,0.00,VWS V14.00,2013-08-29 09:10:00,
2013-08-29 04:20:00,76.6,62.7,30.01,SSW,207,0.0,0.0,62,0.00,,---,0.00,VWS V14.00,2013-08-29 09:20:00,
2013-08-29 04:30:00,76.5,62.9,30.01,SSW,206,0.0,0.0,63,0.00,,---,0.00,VWS V14.00,2013-08-29 09:30:00,
2013-08-29 04:40:00,76.3,62.8,30.01,SSW,206,0.0,0.0,63,0.00,,---,0.00,VWS V14.00,2013-08-29 09:40:00,
2013-08-29 04:50:00,76.1,63.0,30.01,SSW,207,0.0,0.0,64,0.00,,---,0.00,VWS V14.00,2013-08-29 09:50:00,
2013-08-29 05:00:00,75.7,63.2,30.01,SSW,207,0.0,0.0,65,0.00,,---,0.00,VWS V14.00,2013-08-29 10:00:00,
2013-08-29 05:10:00,75.6,63.4,30.01,SSW,208,0.0,0.0,66,0.00,,---,0.00,VWS V14.00,2013-08-29 10:10:00,
2013-08-29 05:20:00,75.2,63.1,30.01,SSW,206,0.0,0.0,66,0.00,,---,0.00,VWS V14.00,2013-08-29 10:20:00,
2013-08-29 05:30:00,75.0,62.9,30.01,SSW,208,0.0,0.0,66,0.00,,---,0.00,VWS V14.00,2013-08-29 10:30:00,
2013-08-29 05:40:00,74.8,63.2,30.01,SSW,207,0.0,0.0,67,0.00,,---,0.00,VWS V14.00,2013-08-29 10:40:00,
2013-08-29 05:50:00,74.7,63.4,30.01,SSW,206,0.0,0.0,68,0.00,,---,0.00,VWS V14.00,2013-08-29 10:50:00,
2013-08-29 06:00:00,74.7,63.4,30.01,SSW,207,0.0,0.0,68,0.00,,---,0.00,VWS V14.00,2013-08-29 11:00:00,
2013-08-29 06:10:00,74.5,63.7,30.04,SSW,208,0.0,0.0,69,0.00,,---,0.00,VWS V14.00,2013-08-29 11:10:00,
2013-08-29 06:20:00,74.3,63.5,30.04,SSW,207,0.0,0.0,69,0.00,,---,0.00,VWS V14.00,2013-08-29 11:20:00,
2013-08-29 06:30:00,74.3,63.9,30.04,SSW,206,0.0,0.0,70,0.00,,---,0.00,VWS V14.00,2013-08-29 11:30:00,
2013-08-29 06:40:00,74.1,63.7,30.04,SSW,208,0.0,0.0,70,0.00,,---,0.00,VWS V14.00,2013-08-29 11:40:00,
2013-08-29 06:50:00,73.9,63.5,30.04,SSW,205,0.0,0.0,70,0.00,,---,0.00,VWS V14.00,2013-08-29 11:50:00,
2013-08-29 07:00:00,74.1,64.1,30.04,SSW,207,0.0,0.0,71,0.00,,---,0.00,VWS V14.00,2013-08-29 12:00:00,
2013-08-29 07:10:00,73.4,63.4,30.04,SSW,207,0.0,0.0,71,0.00,,---,0.00,VWS V14.00,2013-08-29 12:10:00,
2013-08-29 07:20:00,71.2,63.3,30.04,SSW,204,0.0,0.0,76,0.00,,---,0.00,VWS V14.00,2013-08-29 12:20:00,
2013-08-29 07:30:00,70.7,63.5,30.04,SSW,206,0.0,0.0,78,0.00,,---,0.00,VWS V14.00,2013-08-29 12:30:00,
2013-08-29 07:40:00,70.7,64.6,30.04,SSW,206,0.0,0.0,81,0.00,,---,0.00,VWS V14.00,2013-08-29 12:40:00,
2013-08-29 07:50:00,71.1,65.6,30.04,SSW,208,0.0,0.0,83,0.00,,---,0.00,VWS V14.00,2013-08-29 12:50:00,
2013-08-29 08:00:00,71.1,66.3,30.04,SSW,205,0.0,0.0,85,0.00,,---,0.00,VWS V14.00,2013-08-29 13:00:00,
2013-08-29 08:10:00,71.4,67.3,30.04,SSW,208,0.0,0.0,87,0.00,,---,0.00,VWS V14.00,2013-08-29 13:10:00,
2013-08-29 08:20:00,71.8,68.0,30.04,SSW,205,0.0,0.0,88,0.00,,---,0.00,VWS V14.00,2013-08-29 13:20:00,
2013-08-29 08:30:00,72.1,68.7,30.04,SSW,204,0.0,0.0,89,0.00,,---,0.00,VWS V14.00,2013-08-29 13:30:00,
2013-08-29 08:40:00,72.3,69.2,30.07,SSW,205,0.0,0.0,90,0.00,,---,0.00,VWS V14.00,2013-08-29 13:40:00,
2013-08-29 08:50:00,72.5,69.7,30.07,SSW,208,0.0,0.0,91,0.00,,---,0.00,VWS V14.00,2013-08-29 13:50:00,
2013-08-29 09:00:00,72.9,70.1,30.04,SSW,204,0.0,0.0,91,0.00,,---,0.00,VWS V14.00,2013-08-29 14:00:00,
2013-08-29 09:10:00,73.0,70.9,30.07,SSW,208,0.0,0.0,93,0.00,,---,0.00,VWS V14.00,2013-08-29 14:10:00,
2013-08-29 09:20:00,75.4,72.6,30.07,SSW,208,0.0,0.0,91,0.00,,---,0.00,VWS V14.00,2013-08-29 14:20:00,
2013-08-29 09:30:00,77.5,74.1,30.07,SW,214,0.0,0.0,89,0.00,,---,0.00,VWS V14.00,2013-08-29 14:30:00,
2013-08-29 09:40:00,78.8,74.6,30.07,SW,216,0.0,0.0,87,0.00,,---,0.00,VWS V14.00,2013-08-29 14:40:00,
2013-08-29 09:50:00,80.4,75.8,30.07,SSW,212,0.0,0.0,86,0.00,,---,0.00,VWS V14.00,2013-08-29 14:50:00,
2013-08-29 10:00:00,81.9,76.9,30.07,SW,214,0.0,0.0,85,0.00,,---,0.00,VWS V14.00,2013-08-29 15:00:00,
2013-08-29 10:10:00,84.2,79.2,30.07,SW,216,0.0,0.0,85,0.00,,---,0.00,VWS V14.00,2013-08-29 15:10:00,
2013-08-29 10:20:00,85.8,80.1,30.07,North,351,3.1,3.6,83,0.00,,---,0.00,VWS V14.00,2013-08-29 15:20:00,
2013-08-29 10:30:00,87.1,79.0,30.07,North,351,0.0,3.1,77,0.00,,---,0.00,VWS V14.00,2013-08-29 15:30:00,
2013-08-29 10:40:00,88.2,77.2,30.07,North,351,0.0,0.0,70,0.00,,---,0.00,VWS V14.00,2013-08-29 15:40:00,
2013-08-29 10:50:00,88.9,77.0,30.07,North,351,0.0,0.0,68,0.00,,---,0.00,VWS V14.00,2013-08-29 15:50:00,
2013-08-29 11:00:00,89.4,76.1,30.07,North,351,0.0,3.6,65,0.00,,---,0.00,VWS V14.00,2013-08-29 16:00:00,
2013-08-29 11:10:00,90.3,76.5,30.07,North,351,0.0,0.0,64,0.00,,---,0.00,VWS V14.00,2013-08-29 16:10:00,
2013-08-29 11:20:00,91.0,76.2,30.07,NNW,347,0.0,0.0,62,0.00,,---,0.00,VWS V14.00,2013-08-29 16:20:00,
2013-08-29 11:30:00,91.9,76.1,30.07,North,351,0.0,2.7,60,0.00,,---,0.00,VWS V14.00,2013-08-29 16:30:00,
2013-08-29 11:40:00,92.3,75.4,30.04,NNW,347,0.0,2.7,58,0.00,,---,0.00,VWS V14.00,2013-08-29 16:40:00,
2013-08-29 11:50:00,93.0,75.0,30.04,North,351,0.0,0.0,56,0.00,,---,0.00,VWS V14.00,2013-08-29 16:50:00,
2013-08-29 12:00:00,94.5,74.1,30.04,NNW,347,0.0,3.1,52,0.00,,---,0.00,VWS V14.00,2013-08-29 17:00:00,
2013-08-29 12:10:00,95.0,74.1,30.04,NNW,344,0.0,0.0,51,0.00,,---,0.00,VWS V14.00,2013-08-29 17:10:00,
2013-08-29 12:20:00,95.5,72.7,30.04,ESE,103,0.0,3.6,48,0.00,,---,0.00,VWS V14.00,2013-08-29 17:20:00,
2013-08-29 12:30:00,95.2,71.2,30.04,ESE,107,0.0,0.0,46,0.00,,---,0.00,VWS V14.00,2013-08-29 17:30:00,
2013-08-29 12:40:00,96.6,70.5,30.04,South,189,0.0,4.9,43,0.00,,---,0.00,VWS V14.00,2013-08-29 17:40:00,
2013-08-29 12:50:00,96.3,68.0,30.04,SSW,200,0.0,0.0,40,0.00,,---,0.00,VWS V14.00,2013-08-29 17:50:00,
2013-08-29 13:00:00,96.4,66.7,30.04,WSW,241,0.0,0.0,38,0.00,,---,0.00,VWS V14.00,2013-08-29 18:00:00,
2013-08-29 13:10:00,97.0,66.4,30.01,SW,233,0.0,0.0,37,0.00,,---,0.00,VWS V14.00,2013-08-29 18:10:00,
2013-08-29 13:20:00,98.1,66.6,30.01,WSW,258,0.0,3.1,36,0.00,,---,0.00,VWS V14.00,2013-08-29 18:20:00,
2013-08-29 13:30:00,99.0,65.7,30.01,SSW,197,0.0,3.6,34,0.00,,---,0.00,VWS V14.00,2013-08-29 18:30:00,
2013-08-29 13:40:00,99.0,64.0,30.01,SSW,200,0.0,5.8,32,0.00,,---,0.00,VWS V14.00,2013-08-29 18:40:00,
2013-08-29 13:50:00,99.5,63.5,30.01,SSW,192,2.7,3.1,31,0.00,,---,0.00,VWS V14.00,2013-08-29 18:50:00,
2013-08-29 14:00:00,100.2,62.2,30.01,South,185,0.0,4.5,29,0.00,,---,0.00,VWS V14.00,2013-08-29 19:00:00,
2013-08-29 14:10:00,101.3,62.2,30.01,SSE,164,0.0,2.7,28,0.00,,---,0.00,VWS V14.00,2013-08-29 19:10:00,
2013-08-29 14:20:00,102.0,61.8,30.01,SSE,163,3.1,3.6,27,0.00,,---,0.00,VWS V14.00,2013-08-29 19:20:00,
2013-08-29 14:30:00,101.8,61.6,29.98,SSE,167,0.0,4.0,27,0.00,,---,0.00,VWS V14.00,2013-08-29 19:30:00,
2013-08-29 14:40:00,102.0,60.7,29.98,South,170,0.0,4.0,26,0.00,,---,0.00,VWS V14.00,2013-08-29 19:40:00,
2013-08-29 14:50:00,100.8,59.6,29.98,SSE,168,0.0,4.0,26,0.00,,---,0.00,VWS V14.00,2013-08-29 19:50:00,
2013-08-29 15:00:00,99.3,59.5,29.98,SSE,158,0.0,3.1,27,0.00,,---,0.00,VWS V14.00,2013-08-29 20:00:00,
2013-08-29 15:10:00,98.4,58.7,29.98,SSE,153,0.0,0.0,27,0.00,,---,0.00,VWS V14.00,2013-08-29 20:10:00,
2013-08-29 15:20:00,99.9,59.9,29.98,SSE,159,0.0,0.0,27,0.00,,---,0.00,VWS V14.00,2013-08-29 20:20:00,
2013-08-29 15:30:00,100.9,59.8,29.98,SSE,160,0.0,0.0,26,0.00,,---,0.00,VWS V14.00,2013-08-29 20:30:00,
2013-08-29 15:40:00,100.4,59.3,29.95,SSE,160,0.0,3.1,26,0.00,,---,0.00,VWS V14.00,2013-08-29 20:40:00,
2013-08-29 15:50:00,99.1,58.3,29.95,SSE,156,0.0,0.0,26,0.00,,---,0.00,VWS V14.00,2013-08-29 20:50:00,
2013-08-29 16:00:00,97.9,57.2,29.95,SSE,160,0.0,0.0,26,0.00,,---,0.00,VWS V14.00,2013-08-29 21:00:00,
2013-08-29 16:10:00,98.4,57.7,29.95,SSE,155,0.0,4.5,26,0.00,,---,0.00,VWS V14.00,2013-08-29 21:10:00,
2013-08-29 16:20:00,99.7,58.7,29.95,SSE,158,0.0,0.0,26,0.00,,---,0.00,VWS V14.00,2013-08-29 21:20:00,
2013-08-29 16:30:00,100.8,59.6,29.95,SSE,157,0.0,0.0,26,0.00,,---,0.00,VWS V14.00,2013-08-29 21:30:00,
2013-08-29 16:40:00,101.1,59.9,29.95,SSE,161,0.0,0.0,26,0.00,,---,0.00,VWS V14.00,2013-08-29 21:40:00,
2013-08-29 16:50:00,100.9,59.8,29.95,SSE,158,0.0,0.0,26,0.00,,---,0.00,VWS V14.00,2013-08-29 21:50:00,
2013-08-29 17:00:00,100.8,58.5,29.95,SSE,156,0.0,0.0,25,0.00,,---,0.00,VWS V14.00,2013-08-29 22:00:00,
2013-08-29 17:10:00,100.4,58.2,29.95,SSE,154,0.0,0.0,25,0.00,,---,0.00,VWS V14.00,2013-08-29 22:10:00,
2013-08-29 17:20:00,99.9,57.8,29.95,SSE,155,0.0,0.0,25,0.00,,---,0.00,VWS V14.00,2013-08-29 22:20:00,
2013-08-29 17:30:00,99.7,57.6,29.92,SSE,159,0.0,0.0,25,0.00,,---,0.00,VWS V14.00,2013-08-29 22:30:00,
2013-08-29 17:40:00,99.5,58.6,29.92,SSE,165,0.0,3.1,26,0.00,,---,0.00,VWS V14.00,2013-08-29 22:40:00,
2013-08-29 17:50:00,99.1,58.3,29.92,SSE,160,0.0,0.0,26,0.00,,---,0.00,VWS V14.00,2013-08-29 22:50:00,
2013-08-29 18:00:00,99.0,58.1,29.92,SSE,154,0.0,3.6,26,0.00,,---,0.00,VWS V14.00,2013-08-29 23:00:00,
2013-08-29 18:10:00,98.8,58.0,29.92,SSE,155,0.0,3.1,26,0.00,,---,0.00,VWS V14.00,2013-08-29 23:10:00,
2013-08-29 18:20:00,98.4,57.7,29.92,SSE,158,0.0,0.0,26,0.00,,---,0.00,VWS V14.00,2013-08-29 23:20:00,
2013-08-29 18:30:00,98.1,57.4,29.92,SSE,158,0.0,0.0,26,0.00,,---,0.00,VWS V14.00,2013-08-29 23:30:00,
2013-08-29 18:40:00,97.9,57.2,29.92,SSE,159,0.0,0.0,26,0.00,,---,0.00,VWS V14.00,2013-08-29 23:40:00,
2013-08-29 18:50:00,97.5,56.9,29.92,SSE,159,0.0,0.0,26,0.00,,---,0.00,VWS V14.00,2013-08-29 23:50:00,
2013-08-29 19:00:00,97.0,56.4,29.92,SSE,156,0.0,0.0,26,0.00,,---,0.00,VWS V14.00,2013-08-30 00:00:00,
2013-08-29 19:10:00,96.4,56.0,29.92,SSE,158,0.0,0.0,26,0.00,,---,0.00,VWS V14.00,2013-08-30 00:10:00,
2013-08-29 19:20:00,95.7,56.4,29.92,SSE,156,0.0,0.0,27,0.00,,---,0.00,VWS V14.00,2013-08-30 00:20:00,
2013-08-29 19:30:00,95.2,56.0,29.92,SSE,158,0.0,0.0,27,0.00,,---,0.00,VWS V14.00,2013-08-30 00:30:00,
2013-08-29 19:40:00,94.5,56.4,29.92,SSE,156,0.0,0.0,28,0.00,,---,0.00,VWS V14.00,2013-08-30 00:40:00,
2013-08-29 19:50:00,93.9,55.9,29.92,SSE,157,0.0,0.0,28,0.00,,---,0.00,VWS V14.00,2013-08-30 00:50:00,
2013-08-29 20:00:00,93.2,56.2,29.92,SSE,156,0.0,0.0,29,0.00,,---,0.00,VWS V14.00,2013-08-30 01:00:00,
2013-08-29 20:10:00,92.8,55.9,29.95,SSE,158,0.0,0.0,29,0.00,,---,0.00,VWS V14.00,2013-08-30 01:10:00,
2013-08-29 20:20:00,92.3,56.4,29.95,SSE,159,0.0,0.0,30,0.00,,---,0.00,VWS V14.00,2013-08-30 01:20:00,
2013-08-29 20:30:00,91.8,56.9,29.95,SSE,159,0.0,0.0,31,0.00,,---,0.00,VWS V14.00,2013-08-30 01:30:00,
2013-08-29 20:40:00,91.0,56.2,29.95,SSE,159,0.0,0.0,31,0.00,,---,0.00,VWS V14.00,2013-08-30 01:40:00,
2013-08-29 20:50:00,90.7,56.8,29.95,SSE,159,0.0,0.0,32,0.00,,---,0.00,VWS V14.00,2013-08-30 01:50:00,
2013-08-29 21:00:00,90.3,57.3,29.95,SSE,158,0.0,0.0,33,0.00,,---,0.00,VWS V14.00,2013-08-30 02:00:00,
2013-08-29 21:10:00,89.8,57.7,29.95,SSE,159,0.0,0.0,34,0.00,,---,0.00,VWS V14.00,2013-08-30 02:10:00,
2013-08-29 21:20:00,89.1,57.9,29.95,SSE,159,0.0,0.0,35,0.00,,---,0.00,VWS V14.00,2013-08-30 02:20:00,
2013-08-29 21:30:00,88.5,59.0,29.95,SSE,160,0.0,0.0,37,0.00,,---,0.00,VWS V14.00,2013-08-30 02:30:00,
2013-08-29 21:40:00,87.8,59.1,29.95,SSE,160,0.0,0.0,38,0.00,,---,0.00,VWS V14.00,2013-08-30 02:40:00,
2013-08-29 21:50:00,87.1,59.8,29.95,SSE,159,0.0,0.0,40,0.00,,---,0.00,VWS V14.00,2013-08-30 02:50:00,
2013-08-29 22:00:00,86.9,60.4,29.95,SSE,158,0.0,0.0,41,0.00,,---,0.00,VWS V14.00,2013-08-30 03:00:00,
2013-08-29 22:10:00,86.2,60.4,29.95,SSE,161,0.0,0.0,42,0.00,,---,0.00,VWS V14.00,2013-08-30 03:10:00,
2013-08-29 22:20:00,85.8,60.1,29.95,SSE,160,0.0,0.0,42,0.00,,---,0.00,VWS V14.00,2013-08-30 03:20:00,
2013-08-29 22:30:00,85.3,60.3,29.95,SSE,161,0.0,0.0,43,0.00,,---,0.00,VWS V14.00,2013-08-30 03:30:00,
2013-08-29 22:40:00,84.9,60.6,29.95,SSE,160,0.0,0.0,44,0.00,,---,0.00,VWS V14.00,2013-08-30 03:40:00,
2013-08-29 22:50:00,84.7,61.1,29.95,SSE,159,0.0,0.0,45,0.00,,---,0.00,VWS V14.00,2013-08-30 03:50:00,
2013-08-29 23:00:00,84.6,60.9,29.95,SSE,160,0.0,0.0,45,0.00,,---,0.00,VWS V14.00,2013-08-30 04:00:00,
2013-08-29 23:10:00,84.2,61.2,29.95,SSE,159,0.0,0.0,46,0.00,,---,0.00,VWS V14.00,2013-08-30 04:10:00,
2013-08-29 23:20:00,84.0,61.0,29.95,SSE,159,0.0,0.0,46,0.00,,---,0.00,VWS V14.00,2013-08-30 04:20:00,
2013-08-29 23:30:00,83.8,61.5,29.95,SSE,159,0.0,0.0,47,0.00,,---,0.00,VWS V14.00,2013-08-30 04:30:00,
2013-08-29 23:40:00,83.7,61.3,29.95,SSE,160,0.0,0.0,47,0.00,,---,0.00,VWS V14.00,2013-08-30 04:40:00,
2013-08-29 23:50:00,83.5,61.2,29.95,SSE,158,0.0,0.0,47,0.00,,---,0.00,VWS V14.00,2013-08-30 04:50:00,